WAOO/BDJ METAR and TAF weather

Enter ICAO airport designator
Station Type Date Time Source
WAOO METAR 2019/02/21 12:00 UTC NOAA

WAOO 211200Z 13002KT 8000 SCT018 29/25 Q1011


Station Type Date Time Source
WAOO Decoded METAR 2019/02/21 12:00 UTC NOAA

Station name not available
Feb 21, 2019 - 07:00 AM EST / 2019.02.21 1200 UTC
Wind: from the SE (130 degrees) at 2 MPH (2 KT):0
Visibility: 4 mile(s):0
Sky conditions: partly cloudy
Temperature: 84 F (29 C)
Dew Point: 77 F (25 C)
Relative Humidity: 79%
Pressure (altimeter): 29.85 in. Hg (1011 hPa)
ob: WAOO 211200Z 13002KT 8000 SCT018 29/25 Q1011
cycle: 12

Station Type Date Time Source
WAOO TAF 2019/02/21 12:30 UTC NOAA

TAF WAOO 211100Z 2112/2212 36007KT 9999 SCT017 PROB40
TEMPO 2113/2115 6000 RA
TEMPO 2206/2210 5000 TSRA FEW016CB


Example: see airport list